createdAt,value
2022-08-05T00:02:12.158Z,53.18
2022-08-05T00:07:26.840Z,53.45
2022-08-05T00:12:13.184Z,53.58
2022-08-05T00:17:19.362Z,54.30
2022-08-05T00:22:12.036Z,54.89
2022-08-05T00:27:16.643Z,54.07
2022-08-05T00:32:15.156Z,54.39
2022-08-05T00:37:14.277Z,53.01
2022-08-05T00:42:10.529Z,53.48
2022-08-05T00:47:11.994Z,53.08
2022-08-05T00:52:10.411Z,53.08
2022-08-05T00:57:10.332Z,51.79
2022-08-05T01:02:10.282Z,51.99
2022-08-05T01:07:13.536Z,51.89
2022-08-05T01:12:18.846Z,51.60
2022-08-05T01:17:11.075Z,51.50
2022-08-05T01:22:10.975Z,51.82
2022-08-05T01:27:17.741Z,52.73
2022-08-05T01:32:12.120Z,53.43
2022-08-05T01:37:09.817Z,53.75
2022-08-05T01:42:10.765Z,53.13
2022-08-05T01:47:09.719Z,53.36
2022-08-05T01:52:17.628Z,53.92
2022-08-05T01:58:12.768Z,53.63
2022-08-05T02:02:10.806Z,54.25
2022-08-05T02:07:09.441Z,55.82
2022-08-05T02:12:10.255Z,56.24
2022-08-05T02:17:16.973Z,56.54
2022-08-05T02:22:10.237Z,56.32
2022-08-05T02:27:10.558Z,55.89
2022-08-05T02:32:09.124Z,55.69
2022-08-05T02:37:09.026Z,55.66
2022-08-05T02:42:09.116Z,55.66
2022-08-05T02:47:08.896Z,54.87
2022-08-05T02:52:09.107Z,56.12
2022-08-05T02:57:09.773Z,58.22
2022-08-05T03:02:09.716Z,58.39
2022-08-05T03:07:08.649Z,57.34
2022-08-05T03:12:09.578Z,57.46
2022-08-05T03:17:09.186Z,56.67
2022-08-05T03:22:16.360Z,57.34
2022-08-05T03:27:09.352Z,56.84
2022-08-05T03:32:08.608Z,56.51
2022-08-05T03:37:08.233Z,54.15
2022-08-05T03:42:08.174Z,52.73
2022-08-05T03:47:08.115Z,52.19
2022-08-05T03:52:49.155Z,54.85
2022-08-05T03:57:34.172Z,52.86
2022-08-05T04:02:12.233Z,52.79
2022-08-05T04:07:08.857Z,56.10
2022-08-05T04:12:24.482Z,55.32
2022-08-05T04:17:08.707Z,56.89
2022-08-05T04:22:09.509Z,57.59
2022-08-05T04:27:07.604Z,57.39
2022-08-05T04:32:07.492Z,57.49
2022-08-05T04:37:07.424Z,57.26
2022-08-05T04:42:07.641Z,55.47
2022-08-05T04:47:08.824Z,50.95
2022-08-05T04:52:07.642Z,47.73
2022-08-05T04:57:07.175Z,45.55
2022-08-05T05:02:36.136Z,43.09
2022-08-05T05:07:09.491Z,41.78
2022-08-05T05:12:06.978Z,40.45
2022-08-05T05:17:07.603Z,39.14
2022-08-05T05:22:23.469Z,38.24
2022-08-05T05:27:07.816Z,37.17
2022-08-05T05:32:06.763Z,36.35
2022-08-05T05:37:07.714Z,35.52
2022-08-05T05:42:06.627Z,34.50
2022-08-05T05:47:21.275Z,34.69
2022-08-05T05:52:07.528Z,33.81
2022-08-05T05:57:06.466Z,34.11
2022-08-05T06:02:07.409Z,32.71
2022-08-05T06:07:06.341Z,32.68
2022-08-05T06:12:06.312Z,31.67
2022-08-05T06:17:22.494Z,31.43
2022-08-05T06:22:07.175Z,30.20
2022-08-05T06:27:06.159Z,30.18
2022-08-05T06:32:26.066Z,30.41
2022-08-05T06:37:07.054Z,30.91
2022-08-05T06:42:05.949Z,31.62
2022-08-05T06:47:05.899Z,31.68
2022-08-05T06:52:06.069Z,31.37
2022-08-05T06:58:02.949Z,32.76
2022-08-05T07:02:06.725Z,37.71
2022-08-05T07:07:07.820Z,37.02
2022-08-05T07:12:05.612Z,38.28
2022-08-05T07:18:01.164Z,38.56
2022-08-05T07:22:06.498Z,38.71
2022-08-05T07:27:05.427Z,38.39
2022-08-05T07:32:05.410Z,40.11
2022-08-05T07:37:05.342Z,41.11
2022-08-05T07:42:13.860Z,46.78
2022-08-05T07:47:10.034Z,46.74
2022-08-05T07:52:06.187Z,44.59
2022-08-05T07:57:17.981Z,46.11
2022-08-05T08:02:06.037Z,44.45
2022-08-05T08:07:07.189Z,45.37
2022-08-05T08:12:14.026Z,44.55
2022-08-05T08:17:05.860Z,44.63
2022-08-05T08:22:04.810Z,46.98
2022-08-05T08:27:06.928Z,47.30
2022-08-05T08:32:04.834Z,46.69
2022-08-05T08:37:05.730Z,46.91
2022-08-05T08:42:07.621Z,46.59
2022-08-05T08:47:47.014Z,46.37
2022-08-05T08:52:13.090Z,46.91
2022-08-05T08:57:05.369Z,48.35
2022-08-05T09:02:08.442Z,46.81
2022-08-05T09:07:04.260Z,46.50
2022-08-05T09:12:15.278Z,46.57
2022-08-05T09:17:05.143Z,47.20
2022-08-05T09:22:17.799Z,46.91
2022-08-05T09:27:05.055Z,46.79
2022-08-05T09:32:41.004Z,46.62
2022-08-05T09:37:04.877Z,47.86
2022-08-05T09:42:04.896Z,49.26
2022-08-05T09:47:03.809Z,49.04
2022-08-05T09:52:04.711Z,51.00
2022-08-05T09:57:03.652Z,50.27
2022-08-05T10:02:04.756Z,49.65
2022-08-05T10:07:06.084Z,50.66
2022-08-05T10:12:18.333Z,48.92
2022-08-05T10:17:04.373Z,49.46
2022-08-05T10:22:03.307Z,49.97
2022-08-05T10:27:03.323Z,50.37
2022-08-05T10:32:54.068Z,48.45
2022-08-05T10:37:04.119Z,48.96
2022-08-05T10:42:03.081Z,47.94
2022-08-05T10:47:03.017Z,47.84
2022-08-05T10:52:05.556Z,46.62
2022-08-05T10:57:03.902Z,47.13
2022-08-05T11:02:05.066Z,46.40
2022-08-05T11:07:03.033Z,45.59
2022-08-05T11:12:02.699Z,45.98
2022-08-05T11:17:14.141Z,44.48
2022-08-05T11:22:03.550Z,44.98
2022-08-05T11:27:02.491Z,43.48
2022-08-05T11:32:02.432Z,43.07
2022-08-05T11:37:02.434Z,42.58
2022-08-05T11:42:04.586Z,42.36
2022-08-05T11:47:12.008Z,41.87
2022-08-05T11:52:08.705Z,42.79
2022-08-05T11:57:08.385Z,42.50
2022-08-05T12:02:03.058Z,42.30
2022-08-05T12:07:01.990Z,40.68
2022-08-05T12:12:02.561Z,40.29
2022-08-05T12:17:01.852Z,40.09
2022-08-05T12:22:02.812Z,39.98
2022-08-05T12:27:09.865Z,40.72
2022-08-05T12:32:02.686Z,38.77
2022-08-05T12:37:03.472Z,40.29
2022-08-05T12:42:01.564Z,40.06
2022-08-05T12:47:01.880Z,40.37
2022-08-05T12:52:12.357Z,38.51
2022-08-05T12:57:02.362Z,38.92
2022-08-05T13:02:07.403Z,38.32
2022-08-05T13:07:02.254Z,39.23
2022-08-05T13:12:03.672Z,38.55
2022-08-05T13:17:01.137Z,37.52
2022-08-05T13:22:01.078Z,37.02
2022-08-05T13:27:01.018Z,35.67
2022-08-05T13:32:04.995Z,36.74
2022-08-05T13:37:00.971Z,37.05
2022-08-05T13:42:00.822Z,38.28
2022-08-05T13:47:02.392Z,37.95
2022-08-05T13:52:01.696Z,37.27
2022-08-05T13:57:00.638Z,37.87
2022-08-05T14:02:00.869Z,37.67
2022-08-05T14:07:25.153Z,37.27
2022-08-05T14:12:17.109Z,37.17
2022-08-05T14:17:01.409Z,37.55
2022-08-05T14:22:09.530Z,36.96
2022-08-05T14:27:17.550Z,37.07
2022-08-05T14:32:12.272Z,36.98
2022-08-05T14:37:01.164Z,36.90
2022-08-05T14:42:19.485Z,37.70
2022-08-05T14:47:01.019Z,38.09
2022-08-05T14:52:00.054Z,38.77
2022-08-05T14:56:59.891Z,39.06
2022-08-05T15:02:00.005Z,42.44
2022-08-05T15:06:59.764Z,43.38
2022-08-05T15:11:59.692Z,43.60
2022-08-05T15:16:59.635Z,43.02
2022-08-05T15:22:00.219Z,44.09
2022-08-05T15:26:59.668Z,43.12
2022-08-05T15:32:02.997Z,43.12
2022-08-05T15:37:02.327Z,42.84
2022-08-05T15:42:00.475Z,42.84
2022-08-05T15:46:59.279Z,43.13
2022-08-05T15:52:13.574Z,42.84
2022-08-05T15:57:00.143Z,43.13
2022-08-05T16:01:59.458Z,43.92
2022-08-05T16:06:59.036Z,43.62
2022-08-05T16:11:58.934Z,44.02
2022-08-05T16:16:58.886Z,44.13
2022-08-05T16:22:02.726Z,44.26
2022-08-05T16:26:58.948Z,43.74
2022-08-05T16:31:58.721Z,44.31
2022-08-05T16:36:58.630Z,44.04
2022-08-05T16:42:14.339Z,44.65
2022-08-05T16:46:59.525Z,44.92
2022-08-05T16:51:58.451Z,45.14
2022-08-05T16:56:58.422Z,45.65
2022-08-05T17:01:58.405Z,45.73
2022-08-05T17:07:00.324Z,46.34
2022-08-05T17:12:00.058Z,46.73
2022-08-05T17:16:58.129Z,47.34
2022-08-05T17:21:58.057Z,48.15
2022-08-05T17:26:58.032Z,48.67
2022-08-05T17:31:58.922Z,48.47
2022-08-05T17:36:57.902Z,46.70
2022-08-05T17:42:18.237Z,45.42
2022-08-05T17:46:58.822Z,45.94
2022-08-05T17:51:57.737Z,48.71
2022-08-05T17:56:57.692Z,51.40
2022-08-05T18:01:57.548Z,53.32
2022-08-05T18:07:00.351Z,54.75
2022-08-05T18:11:57.442Z,55.15
2022-08-05T18:16:57.384Z,56.58
2022-08-05T18:22:09.010Z,56.88
2022-08-05T18:26:58.233Z,58.81
2022-08-05T18:31:57.324Z,60.19
2022-08-05T18:36:57.102Z,66.19
2022-08-05T18:42:03.709Z,64.67
2022-08-05T18:46:57.966Z,68.53
2022-08-05T18:52:05.515Z,67.90
2022-08-05T18:56:57.855Z,67.18
2022-08-05T19:01:58.351Z,68.60
2022-08-05T19:06:56.820Z,69.39
2022-08-05T19:12:00.568Z,69.79
2022-08-05T19:16:56.633Z,70.75
2022-08-05T19:21:56.512Z,71.04
2022-08-05T19:26:56.499Z,71.58
2022-08-05T19:31:57.458Z,74.37
2022-08-05T19:36:56.328Z,73.63
2022-08-05T19:42:07.458Z,72.94
2022-08-05T19:46:57.272Z,71.31
2022-08-05T19:52:08.390Z,72.58
2022-08-05T19:56:57.099Z,73.64
2022-08-05T20:01:55.989Z,72.41
2022-08-05T20:06:55.943Z,72.34
2022-08-05T20:11:55.873Z,73.18
2022-08-05T20:16:55.919Z,71.15
2022-08-05T20:21:55.734Z,68.33
2022-08-05T20:26:55.664Z,68.23
2022-08-05T20:31:58.382Z,68.16
2022-08-05T20:36:55.597Z,67.30
2022-08-05T20:41:55.454Z,66.61
2022-08-05T20:46:55.440Z,65.18
2022-08-05T20:51:55.418Z,64.91
2022-08-05T20:56:55.266Z,64.15
2022-08-05T21:01:55.282Z,65.11
2022-08-05T21:06:55.838Z,65.50
2022-08-05T21:12:09.397Z,65.31
2022-08-05T21:16:56.036Z,64.28
2022-08-05T21:21:54.940Z,64.48
2022-08-05T21:26:58.402Z,65.50
2022-08-05T21:31:54.860Z,64.90
2022-08-05T21:36:54.766Z,65.34
2022-08-05T21:42:01.937Z,64.21
2022-08-05T21:46:58.244Z,62.59
2022-08-05T21:52:27.747Z,65.40
2022-08-05T21:57:28.098Z,63.94
2022-08-05T22:01:55.433Z,63.97
2022-08-05T22:06:54.367Z,62.77
2022-08-05T22:11:54.631Z,64.79
2022-08-05T22:16:56.789Z,62.67
2022-08-05T22:21:54.156Z,63.80
2022-08-05T22:26:54.166Z,64.83
2022-08-05T22:31:55.379Z,64.16
2022-08-05T22:36:54.963Z,63.13
2022-08-05T22:42:10.197Z,60.58
2022-08-05T22:46:54.971Z,61.27
2022-08-05T22:52:06.607Z,63.82
2022-08-05T22:56:54.711Z,64.32
2022-08-05T23:02:05.788Z,65.62
2022-08-05T23:06:54.593Z,67.13
2022-08-05T23:11:53.520Z,70.23
2022-08-05T23:16:53.466Z,69.29
2022-08-05T23:21:53.433Z,65.86
2022-08-05T23:26:53.348Z,68.29
2022-08-05T23:31:53.247Z,73.54
2022-08-05T23:36:53.178Z,69.96
2022-08-05T23:41:56.285Z,68.93
2022-08-05T23:46:53.037Z,65.46
2022-08-05T23:51:53.743Z,65.26
2022-08-05T23:56:52.907Z,69.62
